createdAt,value
2018-07-27T00:00:38.696Z,20.00
2018-07-27T00:03:07.627Z,20.00
2018-07-27T00:08:03.495Z,19.90
2018-07-27T00:12:59.107Z,19.90
2018-07-27T00:15:27.042Z,19.80
2018-07-27T00:17:55.372Z,19.80
2018-07-27T00:20:23.961Z,19.70
2018-07-27T00:22:51.926Z,19.70
2018-07-27T00:25:20.372Z,19.60
2018-07-27T00:27:48.246Z,19.50
2018-07-27T00:30:16.129Z,19.50
2018-07-27T00:35:11.803Z,19.30
2018-07-27T00:37:39.676Z,19.30
2018-07-27T00:40:07.647Z,19.30
2018-07-27T00:42:35.544Z,19.10
2018-07-27T00:45:03.752Z,19.20
2018-07-27T00:47:31.641Z,19.20
2018-07-27T00:49:59.547Z,19.20
2018-07-27T00:52:27.447Z,19.10
2018-07-27T00:57:23.148Z,19.10
2018-07-27T00:59:51.019Z,19.00
2018-07-27T01:02:18.912Z,19.00
2018-07-27T01:04:46.768Z,19.00
2018-07-27T01:07:14.652Z,19.10
2018-07-27T01:12:10.279Z,19.10
2018-07-27T01:19:35.617Z,19.00
2018-07-27T01:24:31.237Z,19.10
2018-07-27T01:29:27.307Z,19.20
2018-07-27T01:31:55.924Z,19.00
2018-07-27T01:34:24.493Z,19.00
2018-07-27T01:36:53.222Z,19.10
2018-07-27T01:39:21.140Z,19.00
2018-07-27T01:41:49.047Z,19.00
2018-07-27T01:44:17.744Z,18.90
2018-07-27T01:46:45.618Z,18.80
2018-07-27T01:49:13.501Z,18.70
2018-07-27T01:51:41.384Z,18.60
2018-07-27T01:56:37.006Z,18.60
2018-07-27T02:01:33.165Z,18.70
2018-07-27T02:04:03.222Z,18.60
2018-07-27T02:06:32.048Z,18.60
2018-07-27T02:09:00.831Z,18.50
2018-07-27T02:11:28.836Z,18.50
2018-07-27T02:13:56.815Z,18.50
2018-07-27T02:16:24.704Z,18.40
2018-07-27T02:18:53.401Z,18.30
2018-07-27T02:21:22.157Z,18.20
2018-07-27T02:23:50.146Z,18.10
2018-07-27T02:26:18.813Z,18.00
2018-07-27T02:28:46.663Z,18.00
2018-07-27T02:31:14.656Z,17.90
2018-07-27T02:33:42.714Z,17.80
2018-07-27T02:36:10.519Z,17.80
2018-07-27T02:38:38.391Z,17.80
2018-07-27T02:41:06.336Z,17.70
2018-07-27T02:43:34.439Z,17.80
2018-07-27T02:46:02.340Z,17.90
2018-07-27T02:53:26.163Z,17.90
2018-07-27T02:55:54.107Z,17.90
2018-07-27T03:08:15.212Z,17.90
2018-07-27T03:10:43.149Z,17.80
2018-07-27T03:15:38.830Z,17.70
2018-07-27T03:18:06.801Z,17.60
2018-07-27T03:20:34.799Z,17.60
2018-07-27T03:23:02.699Z,17.70
2018-07-27T03:27:58.936Z,17.70
2018-07-27T03:32:55.500Z,17.90
2018-07-27T03:35:23.858Z,17.90
2018-07-27T03:37:53.633Z,18.00
2018-07-27T03:40:21.567Z,17.90
2018-07-27T03:42:49.501Z,18.00
2018-07-27T03:47:46.371Z,18.00
2018-07-27T03:50:15.848Z,17.90
2018-07-27T03:52:43.735Z,17.90
2018-07-27T03:55:12.407Z,17.90
2018-07-27T03:57:40.312Z,17.80
2018-07-27T04:00:10.748Z,17.80
2018-07-27T04:02:38.662Z,17.80
2018-07-27T04:05:07.710Z,17.80
2018-07-27T04:07:36.790Z,17.60
2018-07-27T04:10:05.369Z,17.70
2018-07-27T04:12:33.319Z,17.80
2018-07-27T04:15:01.735Z,17.80
2018-07-27T04:17:30.194Z,17.80
2018-07-27T04:22:26.679Z,17.90
2018-07-27T04:24:54.596Z,18.00
2018-07-27T04:32:18.052Z,18.00
2018-07-27T04:34:45.998Z,18.10
2018-07-27T04:37:15.362Z,18.20
2018-07-27T04:39:43.315Z,18.30
2018-07-27T04:42:11.265Z,18.40
2018-07-27T04:44:39.209Z,18.40
2018-07-27T04:47:07.689Z,18.50
2018-07-27T04:49:35.595Z,18.60
2018-07-27T04:52:03.531Z,18.70
2018-07-27T04:54:31.431Z,18.80
2018-07-27T04:57:00.044Z,18.80
2018-07-27T05:01:56.552Z,19.00
2018-07-27T05:04:24.492Z,19.10
2018-07-27T05:06:52.438Z,19.20
2018-07-27T05:09:21.619Z,19.20
2018-07-27T05:11:49.834Z,19.30
2018-07-27T05:14:18.267Z,19.30
2018-07-27T05:16:46.381Z,19.40
2018-07-27T05:21:43.204Z,19.60
2018-07-27T05:24:11.089Z,19.60
2018-07-27T05:26:39.057Z,19.70
2018-07-27T05:29:08.574Z,19.70
2018-07-27T05:31:36.603Z,19.80
2018-07-27T05:34:04.552Z,19.90
2018-07-27T05:36:32.464Z,19.90
2018-07-27T05:39:00.401Z,20.00
2018-07-27T05:41:28.339Z,20.00
2018-07-27T05:43:56.834Z,20.10
2018-07-27T05:46:25.416Z,20.30
2018-07-27T05:48:53.508Z,20.40
2018-07-27T05:51:21.478Z,20.50
2018-07-27T05:53:49.392Z,20.60
2018-07-27T05:58:45.083Z,20.90
2018-07-27T06:01:13.123Z,21.00
2018-07-27T06:03:41.045Z,21.10
2018-07-27T06:08:37.010Z,21.50
2018-07-27T06:11:04.973Z,21.90
2018-07-27T06:16:00.687Z,22.50
2018-07-27T06:18:29.324Z,23.00
2018-07-27T06:20:57.338Z,23.50
2018-07-27T06:23:25.257Z,24.00
2018-07-27T06:25:53.159Z,24.30
2018-07-27T06:28:21.866Z,24.70
2018-07-27T06:38:14.989Z,25.30
2018-07-27T06:40:42.915Z,25.30
2018-07-27T06:43:11.601Z,25.30
2018-07-27T06:45:39.496Z,25.30
2018-07-27T06:48:11.966Z,25.30
2018-07-27T06:50:39.914Z,25.40
2018-07-27T06:53:08.431Z,25.50
2018-07-27T06:55:36.978Z,25.60
2018-07-27T06:58:05.786Z,25.60
2018-07-27T07:03:01.729Z,25.90
2018-07-27T07:05:29.696Z,25.90
2018-07-27T07:07:58.142Z,26.00
2018-07-27T07:10:26.977Z,26.20
2018-07-27T07:12:54.872Z,26.20
2018-07-27T07:15:23.471Z,26.30
2018-07-27T07:17:51.394Z,26.40
2018-07-27T07:22:47.832Z,26.50
2018-07-27T07:25:15.837Z,26.50
2018-07-27T07:27:43.671Z,26.50
2018-07-27T07:30:12.834Z,26.50
2018-07-27T07:32:41.696Z,26.50
2018-07-27T07:35:10.556Z,26.60
2018-07-27T07:40:07.007Z,27.00
2018-07-27T07:42:34.995Z,27.10
2018-07-27T07:45:03.051Z,27.10
2018-07-27T07:47:30.941Z,27.20
2018-07-27T07:49:59.571Z,27.10
2018-07-27T07:52:28.293Z,27.10
2018-07-27T07:57:23.996Z,27.00
2018-07-27T07:59:51.922Z,27.00
2018-07-27T08:02:20.025Z,26.90
2018-07-27T08:04:48.774Z,26.80
2018-07-27T08:07:16.745Z,27.00
2018-07-27T08:09:44.663Z,27.10
2018-07-27T08:12:12.753Z,27.00
2018-07-27T08:14:41.642Z,27.10
2018-07-27T08:17:09.620Z,27.00
2018-07-27T08:22:05.407Z,27.10
2018-07-27T08:24:33.926Z,27.00
2018-07-27T08:27:03.729Z,26.90
2018-07-27T08:29:34.984Z,26.90
2018-07-27T08:32:03.582Z,27.10
2018-07-27T08:39:28.641Z,27.50
2018-07-27T08:41:56.961Z,27.70
2018-07-27T08:44:27.250Z,27.60
2018-07-27T08:46:55.543Z,27.80
2018-07-27T08:49:23.512Z,27.40
2018-07-27T08:51:52.678Z,27.10
2018-07-27T08:54:20.692Z,27.10
2018-07-27T08:56:50.578Z,27.10
2018-07-27T08:59:18.524Z,27.20
2018-07-27T09:04:14.318Z,27.60
2018-07-27T09:06:42.260Z,27.70
2018-07-27T09:09:12.053Z,27.60
2018-07-27T09:11:39.956Z,27.40
2018-07-27T09:14:08.081Z,27.50
2018-07-27T09:16:36.024Z,27.40
2018-07-27T09:19:04.129Z,27.20
2018-07-27T09:21:32.056Z,26.90
2018-07-27T09:24:00.873Z,26.90
2018-07-27T09:26:28.841Z,26.70
2018-07-27T09:28:56.755Z,26.80
2018-07-27T09:31:24.665Z,27.10
2018-07-27T09:33:52.646Z,27.20
2018-07-27T09:36:20.553Z,27.30
2018-07-27T09:38:49.200Z,27.40
2018-07-27T09:41:18.639Z,27.50
2018-07-27T09:43:46.587Z,27.40
2018-07-27T09:46:14.546Z,27.60
2018-07-27T09:51:14.780Z,27.60
2018-07-27T09:53:43.269Z,27.70
2018-07-27T09:56:11.203Z,27.70
2018-07-27T09:58:39.827Z,27.60
2018-07-27T10:01:12.308Z,27.70
2018-07-27T10:03:40.216Z,27.80
2018-07-27T10:06:08.471Z,28.00
2018-07-27T10:08:36.391Z,28.40
2018-07-27T10:11:04.354Z,28.40
2018-07-27T10:13:32.238Z,28.30
2018-07-27T10:16:00.167Z,28.10
2018-07-27T10:18:28.116Z,28.10
2018-07-27T10:20:56.547Z,28.10
2018-07-27T10:23:24.673Z,28.20
2018-07-27T10:25:52.604Z,28.40
2018-07-27T10:33:17.039Z,28.50
2018-07-27T10:35:45.583Z,28.70
2018-07-27T10:38:13.507Z,28.90
2018-07-27T10:40:42.237Z,29.10
2018-07-27T10:43:10.201Z,29.10
2018-07-27T10:45:38.414Z,29.10
2018-07-27T10:50:34.155Z,28.80
2018-07-27T10:55:30.423Z,28.60
2018-07-27T10:57:58.327Z,28.50
2018-07-27T11:00:26.385Z,28.60
2018-07-27T11:02:54.990Z,28.70
2018-07-27T11:05:24.344Z,28.80
2018-07-27T11:07:52.243Z,28.90
2018-07-27T11:10:20.213Z,29.00
2018-07-27T11:12:48.115Z,28.90
2018-07-27T11:15:16.013Z,29.00
2018-07-27T11:17:44.338Z,29.20
2018-07-27T11:20:12.975Z,29.20
2018-07-27T11:22:40.880Z,29.20
2018-07-27T11:25:08.813Z,29.50
2018-07-27T11:27:37.096Z,29.60
2018-07-27T11:30:05.119Z,29.50
2018-07-27T11:32:33.106Z,29.40
2018-07-27T11:37:29.294Z,29.60
2018-07-27T11:39:57.152Z,29.70
2018-07-27T11:42:25.089Z,29.90
2018-07-27T11:47:21.286Z,30.10
2018-07-27T11:49:49.181Z,30.00
2018-07-27T11:52:17.134Z,29.70
2018-07-27T11:54:45.357Z,29.40
2018-07-27T11:57:13.225Z,29.30
2018-07-27T11:59:41.173Z,29.10
2018-07-27T12:02:09.114Z,29.00
2018-07-27T12:04:37.063Z,29.10
2018-07-27T12:07:05.475Z,29.40
2018-07-27T12:09:33.536Z,29.70
2018-07-27T12:12:01.395Z,29.90
2018-07-27T12:14:29.551Z,29.80
2018-07-27T12:16:57.184Z,30.00
2018-07-27T12:21:52.864Z,30.50
2018-07-27T12:24:20.766Z,30.20
2018-07-27T12:26:48.740Z,30.20
2018-07-27T12:29:16.684Z,30.60
2018-07-27T12:31:45.290Z,30.90
2018-07-27T12:34:13.451Z,31.10
2018-07-27T12:36:41.388Z,31.40
2018-07-27T12:39:10.539Z,31.50
2018-07-27T12:41:39.621Z,31.40
2018-07-27T12:44:07.722Z,31.60
2018-07-27T12:46:35.995Z,31.70
2018-07-27T12:49:04.176Z,31.70
2018-07-27T12:54:00.562Z,31.90
2018-07-27T12:56:29.401Z,31.50
2018-07-27T13:01:25.796Z,31.30
2018-07-27T13:03:53.707Z,31.10
2018-07-27T13:06:21.622Z,31.40
2018-07-27T13:08:50.828Z,31.20
2018-07-27T13:11:18.737Z,31.10
2018-07-27T13:13:46.735Z,31.10
2018-07-27T13:18:42.654Z,31.00
2018-07-27T13:21:10.570Z,31.20
2018-07-27T13:23:48.656Z,31.20
2018-07-27T13:26:23.921Z,31.20
2018-07-27T13:28:44.951Z,31.30
2018-07-27T13:31:13.003Z,31.60
2018-07-27T13:33:55.030Z,31.50
2018-07-27T13:36:22.989Z,31.60
2018-07-27T13:38:50.914Z,31.60
2018-07-27T13:41:18.823Z,31.70
2018-07-27T13:43:46.825Z,31.70
2018-07-27T13:46:15.346Z,31.70
2018-07-27T13:48:43.266Z,31.90
2018-07-27T13:53:38.951Z,32.10
2018-07-27T13:56:06.897Z,31.90
2018-07-27T14:03:30.363Z,32.20
2018-07-27T14:08:26.165Z,32.30
2018-07-27T14:10:54.217Z,32.10
2018-07-27T14:15:51.169Z,32.00
2018-07-27T14:18:19.056Z,32.30
2018-07-27T14:20:46.976Z,32.50
2018-07-27T14:23:14.865Z,32.60
2018-07-27T14:25:43.157Z,32.30
2018-07-27T14:28:11.023Z,32.00
2018-07-27T14:30:38.952Z,31.70
2018-07-27T14:33:06.885Z,31.50
2018-07-27T14:35:35.759Z,31.30
2018-07-27T14:38:09.268Z,31.10
2018-07-27T14:40:37.336Z,30.70
2018-07-27T14:43:05.301Z,29.80
2018-07-27T14:45:33.895Z,27.80
2018-07-27T14:48:03.626Z,26.30
2018-07-27T14:50:31.617Z,25.50
2018-07-27T14:55:27.378Z,24.30
2018-07-27T14:57:55.407Z,23.90
2018-07-27T15:00:23.338Z,23.80
2018-07-27T15:02:51.308Z,23.70
2018-07-27T15:05:19.247Z,23.60
2018-07-27T15:07:48.573Z,23.60
2018-07-27T15:10:16.499Z,23.30
2018-07-27T15:17:41.638Z,23.40
2018-07-27T15:22:38.888Z,23.50
2018-07-27T15:25:06.843Z,23.80
2018-07-27T15:27:34.824Z,24.00
2018-07-27T15:30:02.955Z,24.20
2018-07-27T15:32:30.870Z,24.30
2018-07-27T15:34:59.488Z,24.40
2018-07-27T15:37:27.417Z,24.50
2018-07-27T15:39:55.378Z,24.50
2018-07-27T15:42:26.360Z,24.70
2018-07-27T15:45:02.134Z,24.90
2018-07-27T15:49:58.671Z,24.90
2018-07-27T15:52:26.932Z,25.10
2018-07-27T15:54:54.844Z,25.20
2018-07-27T16:02:18.951Z,25.40
2018-07-27T16:04:47.511Z,25.40
2018-07-27T16:07:16.515Z,25.30
2018-07-27T16:09:44.448Z,25.30
2018-07-27T16:12:13.704Z,25.40
2018-07-27T16:14:41.735Z,25.50
2018-07-27T16:17:09.673Z,25.70
2018-07-27T16:19:38.195Z,25.80
2018-07-27T16:22:06.920Z,25.80
2018-07-27T16:24:34.985Z,25.90
2018-07-27T16:29:30.736Z,26.20
2018-07-27T16:31:58.868Z,26.30
2018-07-27T16:34:26.854Z,26.40
2018-07-27T16:36:54.751Z,26.50
2018-07-27T16:39:23.302Z,26.60
2018-07-27T16:41:51.564Z,26.60
2018-07-27T16:44:19.468Z,26.80
2018-07-27T16:46:47.832Z,26.70
2018-07-27T16:49:15.748Z,26.70
2018-07-27T16:51:43.635Z,26.80
2018-07-27T16:54:12.058Z,27.00
2018-07-27T16:56:39.952Z,26.90
2018-07-27T17:01:36.027Z,27.10
2018-07-27T17:06:33.702Z,27.10
2018-07-27T17:09:01.578Z,27.20
2018-07-27T17:11:29.522Z,27.30
2018-07-27T17:13:58.036Z,27.40
2018-07-27T17:18:54.479Z,27.40
2018-07-27T17:21:22.780Z,27.50
2018-07-27T17:23:50.806Z,27.50
2018-07-27T17:26:18.704Z,27.50
2018-07-27T17:28:46.632Z,27.50
2018-07-27T17:31:14.955Z,27.30
2018-07-27T17:36:11.207Z,27.20
2018-07-27T17:41:07.838Z,27.10
2018-07-27T17:43:36.451Z,27.10
2018-07-27T17:46:06.057Z,27.00
2018-07-27T17:48:34.234Z,27.00
2018-07-27T17:51:03.077Z,26.90
2018-07-27T17:53:31.399Z,26.70
2018-07-27T17:58:27.854Z,26.50
2018-07-27T18:00:57.067Z,26.40
2018-07-27T18:03:26.060Z,26.30
2018-07-27T18:05:54.419Z,26.10
2018-07-27T18:08:23.937Z,26.10
2018-07-27T18:10:51.907Z,26.10
2018-07-27T18:13:20.047Z,25.90
2018-07-27T18:15:48.014Z,25.80
2018-07-27T18:20:44.273Z,25.70
2018-07-27T18:23:12.192Z,25.60
2018-07-27T18:25:41.659Z,25.50
2018-07-27T18:28:10.972Z,25.50
2018-07-27T18:33:07.414Z,25.30
2018-07-27T18:35:36.717Z,25.40
2018-07-27T18:38:04.630Z,25.30
2018-07-27T18:40:32.595Z,25.30
2018-07-27T18:43:00.519Z,25.20
2018-07-27T18:47:56.562Z,25.00
2018-07-27T18:50:25.559Z,24.90
2018-07-27T18:52:53.506Z,24.90
2018-07-27T18:57:49.953Z,24.80
2018-07-27T19:02:46.547Z,24.50
2018-07-27T19:05:15.281Z,24.40
2018-07-27T19:07:43.151Z,24.40
2018-07-27T19:10:11.045Z,24.30
2018-07-27T19:15:08.333Z,24.10
2018-07-27T19:17:37.092Z,24.00
2018-07-27T19:20:05.060Z,24.00
2018-07-27T19:25:00.693Z,23.80
2018-07-27T19:29:57.385Z,23.50
2018-07-27T19:32:25.960Z,23.20
2018-07-27T19:34:54.098Z,23.10
2018-07-27T19:37:22.999Z,22.90
2018-07-27T19:42:18.699Z,22.70
2018-07-27T19:44:47.338Z,22.90
2018-07-27T19:47:15.253Z,22.90
2018-07-27T19:49:43.105Z,22.90
2018-07-27T19:52:10.972Z,22.70
2018-07-27T19:54:38.886Z,22.70
2018-07-27T19:59:34.823Z,22.50
2018-07-27T20:02:02.799Z,22.40
2018-07-27T20:04:31.369Z,22.50
2018-07-27T20:11:54.822Z,22.70
2018-07-27T20:14:22.815Z,22.70
2018-07-27T20:16:51.619Z,22.70
2018-07-27T20:19:20.175Z,22.60
2018-07-27T20:21:49.125Z,22.60
2018-07-27T20:24:17.048Z,22.50
2018-07-27T20:26:45.539Z,22.40
2018-07-27T20:29:13.505Z,22.40
2018-07-27T20:31:41.431Z,22.40
2018-07-27T20:34:09.319Z,22.40
2018-07-27T20:36:37.224Z,22.30
2018-07-27T20:39:08.698Z,22.30
2018-07-27T20:41:37.213Z,22.20
2018-07-27T20:44:05.201Z,22.20
2018-07-27T20:46:33.315Z,22.10
2018-07-27T20:49:02.126Z,22.10
2018-07-27T20:51:31.879Z,22.00
2018-07-27T20:53:59.750Z,22.00
2018-07-27T20:56:27.621Z,22.00
2018-07-27T20:58:55.638Z,22.00
2018-07-27T21:01:24.328Z,22.00
2018-07-27T21:03:52.239Z,22.10
2018-07-27T21:06:21.315Z,22.00
2018-07-27T21:08:50.138Z,21.80
2018-07-27T21:13:46.795Z,21.70
2018-07-27T21:16:14.712Z,21.70
2018-07-27T21:18:42.578Z,21.70
2018-07-27T21:21:10.480Z,21.60
2018-07-27T21:23:38.463Z,21.60
2018-07-27T21:26:07.275Z,21.50
2018-07-27T21:31:03.551Z,21.70
2018-07-27T21:33:31.453Z,21.50
2018-07-27T21:35:59.384Z,21.40
2018-07-27T21:38:27.277Z,21.40
2018-07-27T21:40:55.228Z,21.40
2018-07-27T21:43:23.156Z,21.30
2018-07-27T21:45:51.173Z,21.20
2018-07-27T21:53:14.664Z,21.00
2018-07-27T21:55:42.656Z,21.00
2018-07-27T21:58:10.591Z,21.00
2018-07-27T22:00:38.461Z,20.90
2018-07-27T22:03:06.378Z,20.80
2018-07-27T22:10:30.936Z,20.60
2018-07-27T22:12:58.904Z,20.60
2018-07-27T22:17:55.698Z,20.40
2018-07-27T22:20:24.850Z,20.50
2018-07-27T22:22:52.705Z,20.50
2018-07-27T22:25:20.711Z,20.50
2018-07-27T22:32:45.057Z,20.30
2018-07-27T22:35:13.876Z,20.40
2018-07-27T22:37:41.777Z,20.30
2018-07-27T22:40:10.776Z,20.40
2018-07-27T22:45:08.064Z,20.30
2018-07-27T22:47:36.311Z,20.30
2018-07-27T22:50:05.330Z,20.30
2018-07-27T22:52:39.426Z,20.30
2018-07-27T22:55:09.837Z,20.40
2018-07-27T23:00:07.779Z,20.20
2018-07-27T23:02:35.662Z,20.10
2018-07-27T23:05:04.477Z,20.20
2018-07-27T23:10:01.545Z,20.10
2018-07-27T23:14:57.967Z,20.00
2018-07-27T23:17:26.291Z,20.00
2018-07-27T23:22:23.535Z,20.00
2018-07-27T23:24:51.470Z,19.90
2018-07-27T23:27:20.144Z,19.90
2018-07-27T23:29:48.031Z,19.90
2018-07-27T23:32:15.929Z,19.80
2018-07-27T23:34:43.814Z,19.90
2018-07-27T23:39:39.447Z,19.90
2018-07-27T23:44:35.289Z,19.90
2018-07-27T23:47:03.216Z,19.90
2018-07-27T23:49:31.809Z,19.80
2018-07-27T23:54:27.563Z,19.70
